Time;durP1;ratioP1;P1;durP2;ratioP2;P2;SDS_P1;SDS_P2;PMS_P1;PMS_P2;Temp;Humidity;BMP_temperature;BMP_pressure;BME280_temperature;BME280_humidity;BME280_pressure;Samples;Min_cycle;Max_cycle;Signal;HPM_P1;HPM_P2
2022/06/09 00:00:11;;;;;;;7.95;3.65;;;;;;;13.54;100.00;100835.50;5073750;28;20029;-35
2022/06/09 00:02:39;;;;;;;13.40;3.08;;;;;;;13.55;100.00;100837.16;5073875;28;20039;-35
2022/06/09 00:05:06;;;;;;;8.57;3.80;;;;;;;13.56;100.00;100833.34;5073430;28;20032;-35
2022/06/09 00:07:32;;;;;;;8.88;3.22;;;;;;;13.57;100.00;100835.03;5074276;28;20043;-35
2022/06/09 00:10:05;;;;;;;8.75;2.80;;;;;;;13.50;100.00;100826.22;5073691;28;20029;-35
2022/06/09 00:12:31;;;;;;;9.75;3.28;;;;;;;13.56;100.00;100841.50;5073521;28;20032;-36
2022/06/09 00:14:57;;;;;;;;;;;;;;;13.63;100.00;100846.78;5074076;28;20028;-35
2022/06/09 00:17:23;;;;;;;7.30;2.90;;;;;;;13.58;100.00;100835.84;5073847;28;20309;-35
2022/06/09 00:19:49;;;;;;;10.60;3.20;;;;;;;13.53;100.00;100850.19;5073480;28;20024;-36
2022/06/09 00:22:14;;;;;;;10.60;3.40;;;;;;;13.54;100.00;100848.28;5073856;28;20040;-35
2022/06/09 00:24:40;;;;;;;8.70;3.70;;;;;;;13.46;100.00;100832.41;5072271;28;20028;-35
2022/06/09 00:27:05;;;;;;;12.13;3.80;;;;;;;13.56;100.00;100849.66;5074307;28;20024;-35
2022/06/09 00:29:31;;;;;;;9.90;3.65;;;;;;;13.55;100.00;100841.75;5073932;28;20032;-35
2022/06/09 00:31:56;;;;;;;9.68;3.97;;;;;;;13.48;100.00;100844.66;5073442;28;20059;-35
2022/06/09 00:34:21;;;;;;;12.20;3.63;;;;;;;13.43;100.00;100830.19;5073546;28;20048;-35
2022/06/09 00:36:47;;;;;;;11.18;3.80;;;;;;;13.54;100.00;100851.00;5074167;28;20460;-35
2022/06/09 00:39:13;;;;;;;12.18;3.50;;;;;;;13.54;100.00;100849.09;5073264;28;20033;-35
2022/06/09 00:41:40;;;;;;;10.30;3.33;;;;;;;13.53;100.00;100855.59;5073357;28;20021;-35
2022/06/09 00:44:17;;;;;;;15.85;4.15;;;;;;;13.55;100.00;100855.34;5073310;28;20032;-35
2022/06/09 00:46:43;;;;;;;13.30;3.97;;;;;;;13.54;100.00;100856.44;5073732;28;20075;-35
2022/06/09 00:49:18;;;;;;;12.75;4.72;;;;;;;13.47;100.00;100862.06;5072649;28;20052;-35
2022/06/09 00:51:49;;;;;;;10.35;3.40;;;;;;;13.47;100.00;100867.47;5073519;28;20433;-35
2022/06/09 00:54:25;;;;;;;8.13;3.47;;;;;;;13.41;100.00;100860.31;5073642;28;20052;-35
2022/06/09 00:57:03;;;;;;;14.30;3.92;;;;;;;13.39;100.00;100868.72;5072954;28;20035;-35
2022/06/09 00:59:30;;;;;;;12.55;3.75;;;;;;;13.29;100.00;100854.97;5074310;28;20134;-35
2022/06/09 01:02:00;;;;;;;12.45;3.80;;;;;;;13.31;100.00;100876.44;5073185;28;20031;-35
2022/06/09 01:04:26;;;;;;;12.27;4.32;;;;;;;13.25;100.00;100863.88;5073045;28;20020;-35
2022/06/09 01:07:06;;;;;;;12.55;4.25;;;;;;;13.28;100.00;100869.66;5073656;28;20028;-35
2022/06/09 01:09:32;;;;;;;12.55;3.83;;;;;;;13.25;100.00;100867.41;5073841;28;20352;-35
2022/06/09 01:11:58;;;;;;;14.98;5.05;;;;;;;13.26;100.00;100870.94;5073054;28;20112;-35
2022/06/09 01:14:28;;;;;;;;;;;;;;;13.31;100.00;100862.88;5073098;28;20051;-35
2022/06/09 01:17:12;;;;;;;13.25;4.13;;;;;;;13.25;100.00;100866.59;5073043;28;20352;-35
2022/06/09 01:19:50;;;;;;;13.80;4.15;;;;;;;13.20;100.00;100866.47;5073522;28;20032;-35
2022/06/09 01:22:15;;;;;;;15.95;4.20;;;;;;;13.21;100.00;100873.56;5072651;28;20120;-35
2022/06/09 01:24:59;;;;;;;15.90;4.63;;;;;;;13.23;100.00;100871.47;5073394;28;20123;-35
2022/06/09 01:27:30;;;;;;;16.65;4.70;;;;;;;13.12;100.00;100865.81;5072990;28;20027;-35
2022/06/09 01:30:08;;;;;;;12.38;4.43;;;;;;;13.18;100.00;100869.44;5072898;28;20104;-36
2022/06/09 01:32:42;;;;;;;18.52;4.40;;;;;;;13.03;100.00;100870.03;5072993;28;20066;-36
2022/06/09 01:35:31;;;;;;;14.90;4.13;;;;;;;13.15;100.00;100883.50;5072512;28;20017;-36
2022/06/09 01:37:59;;;;;;;13.68;4.15;;;;;;;13.13;100.00;100883.78;5073352;28;20025;-36
2022/06/09 01:40:25;;;;;;;13.77;4.18;;;;;;;13.03;100.00;100872.75;5072771;28;20373;-36
2022/06/09 01:42:57;;;;;;;17.75;5.28;;;;;;;13.11;100.00;100883.19;5072989;28;20033;-36
2022/06/09 01:45:24;;;;;;;16.30;5.20;;;;;;;13.16;100.00;100885.16;5073078;28;20021;-36
2022/06/09 01:48:02;;;;;;;16.63;4.95;;;;;;;13.11;100.00;100883.19;5073341;28;20056;-36
2022/06/09 01:50:38;;;;;;;17.45;5.20;;;;;;;13.10;100.00;100880.72;5072240;28;20032;-36
2022/06/09 01:53:10;;;;;;;14.27;4.30;;;;;;;13.14;100.00;100890.84;5073199;28;20057;-36
2022/06/09 01:55:40;;;;;;;15.88;5.35;;;;;;;13.13;100.00;100894.63;5072386;28;20036;-36
2022/06/09 01:58:08;;;;;;;17.35;5.10;;;;;;;13.12;100.00;100897.56;5073117;28;20505;-36
2022/06/09 02:00:36;;;;;;;21.30;5.72;;;;;;;13.11;100.00;100894.03;5072651;28;20029;-36
2022/06/09 02:03:13;;;;;;;14.88;5.30;;;;;;;13.11;100.00;100891.31;5076214;28;20036;-36
2022/06/09 02:05:42;;;;;;;18.30;5.20;;;;;;;13.01;100.00;100888.44;5075952;28;20059;-36
2022/06/09 02:08:12;;;;;;;18.48;5.13;;;;;;;13.09;100.00;100901.63;5076468;28;20032;-36
2022/06/09 02:10:40;;;;;;;15.70;5.13;;;;;;;13.06;100.00;100902.09;5075989;28;20024;-36
2022/06/09 02:13:12;;;;;;;16.10;4.90;;;;;;;13.05;100.00;100903.16;5075705;28;20036;-36
2022/06/09 02:15:46;;;;;;;16.55;5.20;;;;;;;12.98;100.00;100891.66;5076547;28;20028;-36
2022/06/09 02:18:21;;;;;;;14.80;5.22;;;;;;;12.97;100.00;100895.44;5076787;28;20024;-36
2022/06/09 02:21:00;;;;;;;20.35;5.40;;;;;;;13.02;100.00;100916.41;5075934;28;20032;-36
2022/06/09 02:23:26;;;;;;;16.45;5.35;;;;;;;13.00;100.00;100916.66;5076130;28;20027;-37
2022/06/09 02:25:51;;;;;;;15.88;5.07;;;;;;;13.03;100.00;100916.19;5076121;28;20028;-36
2022/06/09 02:28:16;;;;;;;16.87;5.77;;;;;;;12.99;100.00;100925.88;5075782;28;20029;-36
2022/06/09 02:30:42;;;;;;;16.57;5.33;;;;;;;12.99;100.00;100923.16;5075830;28;20649;-36
2022/06/09 02:33:08;;;;;;;20.90;4.80;;;;;;;12.99;100.00;100931.31;5075619;28;20180;-36
2022/06/09 02:35:33;;;;;;;17.60;5.82;;;;;;;13.01;100.00;100929.16;5075906;28;20028;-36
2022/06/09 02:38:01;;;;;;;16.17;5.50;;;;;;;12.95;100.00;100919.28;5075962;28;20029;-36
2022/06/09 02:40:28;;;;;;;16.40;5.70;;;;;;;13.02;100.00;100930.78;5075499;28;20266;-36
2022/06/09 02:42:54;;;;;;;16.50;6.30;;;;;;;13.02;100.00;100929.97;5075747;28;20111;-36
2022/06/09 02:45:19;;;;;;;17.92;5.65;;;;;;;12.96;100.00;100934.50;5075194;28;20055;-36
2022/06/09 02:47:44;;;;;;;17.27;5.53;;;;;;;13.02;100.00;100938.13;5075997;28;20111;-36
2022/06/09 02:50:10;;;;;;;20.27;5.40;;;;;;;13.01;100.00;100940.00;5075326;28;20024;-36
2022/06/09 02:52:36;;;;;;;17.98;5.72;;;;;;;12.94;100.00;100933.94;5074417;28;20346;-36
2022/06/09 02:55:02;;;;;;;14.80;5.60;;;;;;;12.94;100.00;100935.81;5075283;28;20032;-36
2022/06/09 02:57:29;;;;;;;22.40;6.40;;;;;;;13.01;100.00;100950.06;5075279;28;20024;-36
2022/06/09 02:59:54;;;;;;;20.13;5.72;;;;;;;13.00;100.00;100951.94;5075120;28;20107;-36
2022/06/09 03:02:20;;;;;;;17.90;5.78;;;;;;;13.01;100.00;100955.47;5075121;28;20115;-36
2022/06/09 03:04:45;;;;;;;19.73;5.60;;;;;;;12.99;100.00;100950.31;5073774;28;20366;-36
2022/06/09 03:07:12;;;;;;;17.50;5.30;;;;;;;12.92;100.00;100948.81;5075577;28;20134;-36
2022/06/09 03:09:37;;;;;;;;;;;;;;;13.04;100.00;100961.25;5075646;28;20031;-36
2022/06/09 03:12:02;;;;;;;19.45;6.15;;;;;;;12.98;100.00;100964.94;5074655;28;19913;-36
2022/06/09 03:14:28;;;;;;;21.55;6.47;;;;;;;13.00;100.00;100970.94;5074795;28;20025;-36
2022/06/09 03:16:53;;;;;;;18.63;6.32;;;;;;;12.96;100.00;100969.78;5075096;28;20028;-36
2022/06/09 03:19:19;;;;;;;16.80;5.90;;;;;;;12.99;100.00;100974.75;5074454;28;20475;-36
2022/06/09 03:21:45;;;;;;;16.23;5.93;;;;;;;13.00;100.00;100979.09;5074406;28;20258;-36
2022/06/09 03:24:10;;;;;;;22.63;5.80;;;;;;;13.00;100.00;100981.81;5074600;28;20032;-36
2022/06/09 03:26:36;;;;;;;24.88;6.57;;;;;;;13.03;100.00;100991.34;5075389;28;20029;-36
2022/06/09 03:29:03;;;;;;;21.83;6.55;;;;;;;13.04;100.00;100995.72;5074553;28;20021;-36
2022/06/09 03:31:28;;;;;;;19.05;6.25;;;;;;;13.04;100.00;100993.00;5074512;28;20025;-36
2022/06/09 03:33:53;;;;;;;14.77;6.00;;;;;;;12.95;100.00;100987.16;5074861;28;20120;-36
2022/06/09 03:36:18;;;;;;;19.33;6.50;;;;;;;13.01;100.00;100999.72;5074663;28;20254;-36
2022/06/09 03:38:44;;;;;;;16.37;5.80;;;;;;;12.91;100.00;100994.13;5074029;28;20434;-36
2022/06/09 03:41:09;;;;;;;23.03;6.23;;;;;;;13.00;100.00;101008.94;5074582;28;20719;-36
2022/06/09 03:43:35;;;;;;;17.42;5.60;;;;;;;12.97;100.00;101009.44;5074480;28;20062;-36
2022/06/09 03:46:01;;;;;;;19.80;6.30;;;;;;;13.04;100.00;101020.97;5074202;28;20112;-36
2022/06/09 03:48:27;;;;;;;16.00;6.30;;;;;;;13.01;100.00;101021.44;5074334;28;20056;-37
2022/06/09 03:50:53;;;;;;;20.20;6.85;;;;;;;13.01;100.00;101020.63;5074896;28;20342;-36
2022/06/09 03:53:18;;;;;;;17.47;6.43;;;;;;;12.96;100.00;101023.25;5074540;28;20048;-36
2022/06/09 03:55:43;;;;;;;14.20;5.23;;;;;;;12.88;100.00;101010.88;5074165;28;20464;-36
2022/06/09 03:58:09;;;;;;;16.73;5.73;;;;;;;12.94;100.00;101028.09;5074147;28;20274;-36
2022/06/09 04:00:34;;;;;;;16.67;5.85;;;;;;;12.91;100.00;101037.53;5074471;28;20711;-36
2022/06/09 04:03:00;;;;;;;19.38;6.47;;;;;;;12.91;100.00;101042.97;5074095;28;20122;-36
2022/06/09 04:05:26;;;;;;;13.50;5.30;;;;;;;12.92;100.00;101039.19;5074332;28;20033;-36
2022/06/09 04:07:52;;;;;;;16.33;5.72;;;;;;;12.80;100.00;101033.00;5074493;28;20404;-36
2022/06/09 04:10:21;;;;;;;18.17;5.57;;;;;;;12.91;100.00;101056.53;5073666;28;20056;-36
2022/06/09 04:12:46;;;;;;;17.00;5.57;;;;;;;12.87;100.00;101056.19;5074132;28;20032;-36
2022/06/09 04:15:13;;;;;;;15.10;5.63;;;;;;;12.89;100.00;101058.69;5073421;28;20074;-34
2022/06/09 04:17:39;;;;;;;15.45;5.15;;;;;;;12.85;100.00;101052.91;5074366;28;20392;-35
2022/06/09 04:20:05;;;;;;;;;;;;;;;12.93;100.00;101061.72;5074019;28;20028;-36
2022/06/09 04:22:30;;;;;;;16.42;5.30;;;;;;;12.83;100.00;101068.63;5074075;28;19913;-34
2022/06/09 04:24:56;;;;;;;17.65;5.25;;;;;;;12.82;100.00;101061.53;5073169;28;20373;-34
2022/06/09 04:27:21;;;;;;;17.42;5.88;;;;;;;12.81;100.00;101068.03;5073765;28;20032;-34
2022/06/09 04:29:47;;;;;;;12.75;5.03;;;;;;;12.86;100.00;101073.56;5073094;28;20435;-34
2022/06/09 04:32:12;;;;;;;13.85;5.13;;;;;;;12.87;100.00;101071.66;5073305;28;20419;-35
2022/06/09 04:34:37;;;;;;;17.90;5.55;;;;;;;12.88;100.00;101084.16;5073894;28;20103;-35
2022/06/09 04:37:03;;;;;;;16.30;5.63;;;;;;;12.92;100.00;101074.47;5071995;28;20044;-35
2022/06/09 04:39:28;;;;;;;17.65;5.57;;;;;;;12.93;100.00;101076.13;5073569;28;20020;-35
2022/06/09 04:41:54;;;;;;;15.87;5.60;;;;;;;12.88;100.00;101067.88;5073906;28;20060;-35
2022/06/09 04:44:19;;;;;;;17.67;5.93;;;;;;;12.92;100.00;101079.91;5074053;28;20297;-35
2022/06/09 04:46:44;;;;;;;17.67;5.35;;;;;;;12.91;100.00;101085.56;5073577;28;20033;-35
2022/06/09 04:49:10;;;;;;;14.75;5.82;;;;;;;12.90;100.00;101084.75;5073445;28;20020;-35
2022/06/09 04:51:35;;;;;;;13.25;5.20;;;;;;;12.89;100.00;101083.94;5073553;28;20086;-35
2022/06/09 04:54:01;;;;;;;14.20;5.38;;;;;;;12.87;100.00;101094.19;5073128;28;20024;-35
2022/06/09 04:56:26;;;;;;;14.40;5.32;;;;;;;12.87;100.00;101107.75;5073933;28;20089;-35
2022/06/09 04:58:52;;;;;;;17.80;5.63;;;;;;;12.87;100.00;101106.94;5073179;28;20474;-35
2022/06/09 05:01:24;;;;;;;19.38;5.95;;;;;;;12.76;100.00;101105.09;5072859;28;20029;-35
2022/06/09 05:03:50;;;;;;;14.52;5.50;;;;;;;12.88;100.00;101119.44;5073122;28;20392;-35
2022/06/09 05:06:21;;;;;;;17.52;5.68;;;;;;;12.94;100.00;101118.50;5072344;28;20044;-35
2022/06/09 05:08:47;;;;;;;13.25;5.53;;;;;;;13.02;100.00;101114.56;5073178;28;20408;-35
2022/06/09 05:11:12;;;;;;;14.85;5.70;;;;;;;13.10;100.00;101119.63;5073568;28;20025;-35
2022/06/09 05:13:38;;;;;;;22.35;6.65;;;;;;;13.07;100.00;101107.34;5073682;28;20476;-35
2022/06/09 05:16:05;;;;;;;17.38;5.88;;;;;;;13.22;100.00;101128.56;5073430;28;20085;-35
2022/06/09 05:18:31;;;;;;;;;;;;;;;13.36;100.00;101140.81;5074028;28;20123;-35
2022/06/09 05:20:57;;;;;;;16.97;5.13;;;;;;;13.28;100.00;101148.53;5073366;28;19913;-35
2022/06/09 05:23:23;;;;;;;16.75;5.05;;;;;;;13.27;100.00;101144.16;5073292;28;20335;-35
2022/06/09 05:25:50;;;;;;;15.07;5.93;;;;;;;13.31;100.00;101148.88;5073302;28;20038;-35
2022/06/09 05:28:20;;;;;;;14.50;5.45;;;;;;;13.33;100.00;101145.94;5072817;28;20032;-35
2022/06/09 05:30:45;;;;;;;14.02;5.63;;;;;;;13.40;100.00;101149.31;5073266;28;20061;-35
2022/06/09 05:33:11;;;;;;;15.73;5.90;;;;;;;13.39;100.00;101142.22;5072895;28;20126;-35
2022/06/09 05:35:36;;;;;;;12.63;5.32;;;;;;;13.43;100.00;101156.97;5074356;28;20036;-35
2022/06/09 05:46:15;;;;;;;14.80;5.03;;;;;;;13.70;100.00;101169.97;5076837;28;20089;-36
2022/06/09 05:48:41;;;;;;;15.85;5.47;;;;;;;13.77;100.00;101167.94;5076167;28;20024;-36
2022/06/09 05:51:06;;;;;;;11.00;4.25;;;;;;;13.81;100.00;101178.09;5076198;28;20485;-36
2022/06/09 05:53:32;;;;;;;13.47;4.50;;;;;;;13.86;100.00;101178.19;5076114;28;20162;-36
2022/06/09 05:55:57;;;;;;;13.03;4.77;;;;;;;13.89;100.00;101180.38;5077550;28;20095;-36
2022/06/09 05:58:22;;;;;;;11.23;3.95;;;;;;;13.90;100.00;101181.22;5076948;28;20305;-36
2022/06/09 06:00:48;;;;;;;13.47;4.20;;;;;;;13.90;100.00;101182.03;5076066;28;20043;-36
2022/06/09 06:03:16;;;;;;;10.87;4.40;;;;;;;13.89;100.00;101204.84;5076519;28;20282;-35
2022/06/09 06:08:28;;;;;;;9.45;3.65;;;;;;;13.96;100.00;101209.31;5076659;28;20038;-36
2022/06/09 06:10:53;;;;;;;9.63;3.67;;;;;;;13.95;100.00;101204.94;5076382;28;20394;-36
2022/06/09 06:13:19;;;;;;;8.73;3.47;;;;;;;13.98;100.00;101215.34;5075946;28;20067;-36
2022/06/09 06:15:45;;;;;;;10.52;3.47;;;;;;;13.95;100.00;101194.88;5075754;28;20028;-36
2022/06/09 06:18:10;;;;;;;8.50;3.72;;;;;;;14.07;100.00;101219.31;5075890;28;20023;-36
2022/06/09 06:20:36;;;;;;;10.98;3.53;;;;;;;14.07;100.00;101214.69;5075912;28;20475;-36
2022/06/09 06:23:01;;;;;;;8.65;3.58;;;;;;;14.00;100.00;101208.56;5075997;28;20111;-36
2022/06/09 06:25:27;;;;;;;8.90;3.47;;;;;;;14.04;100.00;101223.34;5076091;28;20063;-36
2022/06/09 06:27:53;;;;;;;11.55;3.42;;;;;;;14.02;100.00;101233.63;5076047;28;20379;-36
2022/06/09 06:30:20;;;;;;;13.20;4.30;;;;;;;14.03;100.00;101227.13;5076167;28;20032;-36
2022/06/09 06:32:46;;;;;;;7.88;2.88;;;;;;;14.04;100.00;101233.38;5075764;28;20078;-36
2022/06/09 06:35:12;;;;;;;9.93;3.40;;;;;;;14.02;100.00;101241.81;5075797;28;20036;-36
2022/06/09 06:37:38;;;;;;;13.27;3.50;;;;;;;13.98;100.00;101251.50;5075361;28;20025;-36
2022/06/09 06:40:04;;;;;;;9.93;3.40;;;;;;;14.05;100.00;101260.31;5075554;28;20032;-36
2022/06/09 06:42:29;;;;;;;;;;;;;;;14.14;100.00;101264.31;5075954;28;20089;-36
2022/06/09 06:44:55;;;;;;;10.27;3.30;;;;;;;14.07;100.00;101260.94;5075656;28;19909;-36
2022/06/09 06:47:20;;;;;;;12.23;3.50;;;;;;;14.13;100.00;101273.53;5074604;28;20378;-36
2022/06/09 06:49:45;;;;;;;10.73;3.37;;;;;;;14.13;100.00;101273.53;5074870;28;20312;-36
2022/06/09 06:52:11;;;;;;;8.40;3.08;;;;;;;14.13;100.00;101280.88;5075525;28;20127;-35
2022/06/09 06:54:36;;;;;;;9.52;3.65;;;;;;;14.13;100.00;101281.69;5075220;28;20234;-35
2022/06/09 06:57:05;;;;;;;;;;;;;;;14.25;100.00;101291.69;5075647;28;20032;-35
2022/06/09 06:59:30;;;;;;;9.82;3.55;;;;;;;14.16;100.00;101289.38;5076060;28;20261;-35
2022/06/09 07:01:55;;;;;;;11.27;4.22;;;;;;;14.10;100.00;101275.91;5075407;28;20032;-35
2022/06/09 07:04:21;;;;;;;12.87;4.90;;;;;;;14.22;100.00;101293.00;5074807;28;20025;-35
2022/06/09 07:06:46;;;;;;;8.13;3.30;;;;;;;14.25;100.00;101297.97;5074502;28;20615;-35
2022/06/09 07:09:11;;;;;;;8.85;4.22;;;;;;;14.30;100.00;101305.38;5074665;28;20063;-35
2022/06/09 07:11:39;;;;;;;9.05;3.30;;;;;;;14.30;100.00;101300.78;5075072;28;20442;-35
2022/06/09 07:14:04;;;;;;;8.73;2.63;;;;;;;14.31;100.00;101307.06;5074492;28;20112;-35
2022/06/09 07:16:30;;;;;;;7.15;2.15;;;;;;;14.27;100.00;101295.81;5075651;28;20429;-35
2022/06/09 07:18:55;;;;;;;6.75;2.40;;;;;;;14.37;100.00;101314.22;5075195;28;20099;-35
2022/06/09 07:21:20;;;;;;;;;;;;;;;14.48;100.00;101318.81;5075448;28;20456;-36
2022/06/09 07:23:46;;;;;;;5.57;1.93;;;;;;;14.45;100.00;101322.00;5074339;28;20333;-35
2022/06/09 07:26:11;;;;;;;;;;;;;;;14.58;100.00;101321.69;5075238;28;20037;-35
2022/06/09 07:28:36;;;;;;;7.37;2.50;;;;;;;14.57;100.00;101324.69;5074534;28;19908;-35
2022/06/09 07:31:04;;;;;;;5.77;2.00;;;;;;;14.60;100.00;101330.47;5075271;28;20335;-35
2022/06/09 07:33:32;;;;;;;6.18;2.20;;;;;;;14.64;100.00;101328.91;5075135;28;20665;-35
2022/06/09 07:35:59;;;;;;;4.97;2.20;;;;;;;14.72;100.00;101327.66;5075006;28;20120;-36
2022/06/09 07:38:26;;;;;;;4.90;1.75;;;;;;;14.80;100.00;101327.25;5074589;28;20051;-36
2022/06/09 07:40:53;;;;;;;4.18;1.88;;;;;;;14.90;100.00;101324.69;5074197;28;20115;-36
2022/06/09 07:43:19;;;;;;;4.85;2.10;;;;;;;14.88;100.00;101315.09;5073812;28;20491;-36
2022/06/09 07:45:45;;;;;;;3.67;1.80;;;;;;;14.99;100.00;101319.66;5074325;28;20123;-35
2022/06/09 07:48:11;;;;;;;4.10;1.67;;;;;;;15.19;100.00;101319.13;5073868;28;20086;-36
2022/06/09 07:50:37;;;;;;;;;;;;;;;15.42;100.00;101328.97;5074819;28;20044;-35
2022/06/09 07:53:02;;;;;;;3.78;1.42;;;;;;;15.54;100.00;101323.44;5074494;28;19916;-36
2022/06/09 07:55:29;;;;;;;3.58;1.90;;;;;;;15.67;100.00;101328.56;5074489;28;20071;-36
2022/06/09 07:57:55;;;;;;;2.88;1.30;;;;;;;15.76;100.00;101323.47;5073769;28;20412;-35
2022/06/09 08:00:21;;;;;;;;;;;;;;;15.90;100.00;101322.81;5074723;28;20036;-36
2022/06/09 08:02:47;;;;;;;3.77;0.80;;;;;;;15.76;96.13;101326.19;5074527;28;19955;-35
2022/06/09 08:05:13;;;;;;;;;;;;;;;15.89;99.62;101334.00;5074442;28;20384;-36
2022/06/09 08:07:39;;;;;;;2.03;0.80;;;;;;;15.68;97.24;101322.03;5074024;28;19916;-35
2022/06/09 08:10:05;;;;;;;;;;;;;;;15.94;100.00;101334.88;5074068;28;20020;-35
2022/06/09 08:12:31;;;;;;;2.03;0.60;;;;;;;15.89;95.97;101342.19;5073641;28;20368;-36
2022/06/09 08:14:56;;;;;;;3.10;0.77;;;;;;;15.94;91.93;101342.25;5073612;28;20060;-36
2022/06/09 08:17:22;;;;;;;;;;;;;;;16.14;96.75;101347.91;5074015;28;20029;-35
2022/06/09 08:19:48;;;;;;;2.00;0.57;;;;;;;16.12;92.54;101361.00;5073427;28;19908;-36
2022/06/09 08:22:14;;;;;;;2.20;0.50;;;;;;;16.20;89.88;101365.16;5073804;28;20043;-35
2022/06/09 08:24:39;;;;;;;1.15;0.40;;;;;;;16.28;90.05;101355.72;5073325;28;20043;-35
2022/06/09 08:27:05;;;;;;;0.75;0.40;;;;;;;16.55;90.63;101374.84;5073482;28;20111;-35
2022/06/09 08:29:30;;;;;;;;;;;;;;;16.79;93.42;101380.81;5074436;28;20064;-35
2022/06/09 08:31:56;;;;;;;1.27;0.50;;;;;;;16.87;86.78;101389.38;5073346;28;20311;-36
2022/06/09 08:34:21;;;;;;;;;;;;;;;17.05;90.44;101388.16;5074316;28;20027;-36
2022/06/09 08:36:47;;;;;;;1.58;0.47;;;;;;;16.92;85.72;101394.03;5073898;28;19912;-35
2022/06/09 08:39:12;;;;;;;;;;;;;;;17.07;89.21;101402.38;5074282;28;20029;-35
2022/06/09 08:41:46;;;;;;;1.20;0.60;;;;;;;16.80;86.79;101407.06;5073532;28;19908;-36
2022/06/09 08:44:36;;;;;;;1.40;0.52;;;;;;;16.77;87.01;101416.59;5073266;28;20266;-36
2022/06/09 08:47:28;;;;;;;1.08;0.50;;;;;;;16.63;84.79;101421.59;5073426;28;20020;-36
2022/06/09 08:50:12;;;;;;;1.00;0.40;;;;;;;16.52;84.83;101413.56;5073228;28;20023;-36
2022/06/09 08:52:49;;;;;;;1.00;0.57;;;;;;;16.52;84.94;101430.78;5073263;28;20098;-36
2022/06/09 08:55:35;;;;;;;1.15;0.50;;;;;;;16.41;84.26;101434.47;5073157;28;20043;-36
2022/06/09 08:58:09;;;;;;;2.83;0.93;;;;;;;16.34;85.12;101433.81;5073001;28;20387;-36
2022/06/09 09:00:42;;;;;;;2.03;0.77;;;;;;;16.28;85.83;101443.03;5073519;28;20111;-36
2022/06/09 09:03:42;;;;;;;2.63;0.80;;;;;;;16.21;86.78;101435.88;5073237;28;20060;-36
2022/06/09 09:06:33;;;;;;;3.30;0.90;;;;;;;16.13;87.96;101447.22;5051013;28;20048;-36
2022/06/09 09:09:12;;;;;;;3.92;1.10;;;;;;;15.94;88.47;101441.25;4991383;28;20524;-36
2022/06/09 09:12:01;;;;;;;3.58;1.00;;;;;;;15.92;90.07;101451.59;4995349;28;20071;-36
2022/06/09 09:14:36;;;;;;;3.50;1.20;;;;;;;15.93;90.83;101452.41;4995680;28;20166;-36
2022/06/09 09:17:01;;;;;;;2.60;1.10;;;;;;;15.85;91.11;101439.22;4996045;28;20034;-36
2022/06/09 09:19:32;;;;;;;3.20;1.10;;;;;;;15.97;91.73;101456.31;4995437;28;20034;-36
2022/06/09 09:22:29;;;;;;;3.78;1.42;;;;;;;16.04;92.16;101456.09;4995453;28;20030;-36
2022/06/09 09:25:06;;;;;;;3.25;1.40;;;;;;;16.10;91.19;101468.72;4995123;28;20555;-36
2022/06/09 09:27:48;;;;;;;6.35;1.50;;;;;;;16.14;91.20;101465.25;4995221;28;20049;-36
2022/06/09 09:30:18;;;;;;;3.30;1.30;;;;;;;16.19;90.75;101469.94;4995191;28;20034;-36
2022/06/09 09:32:48;;;;;;;3.72;1.42;;;;;;;16.26;92.02;101469.78;4994919;28;20048;-36
2022/06/09 09:35:32;;;;;;;4.35;1.30;;;;;;;16.37;92.73;101466.91;4994842;28;20030;-36
2022/06/09 09:37:59;;;;;;;4.65;1.67;;;;;;;16.47;89.78;101472.47;4994879;28;20107;-36
2022/06/09 09:40:32;;;;;;;2.53;1.13;;;;;;;16.63;89.59;101476.22;4994893;28;20565;-36
2022/06/09 09:43:03;;;;;;;5.55;1.73;;;;;;;16.76;88.86;101476.94;4985499;28;20512;-37
2022/06/09 09:45:33;;;;;;;2.65;1.00;;;;;;;16.86;84.97;101485.22;4987996;28;20034;-39
2022/06/09 09:48:01;;;;;;;2.95;1.15;;;;;;;16.90;83.69;101478.19;5014717;28;20034;-37
2022/06/09 09:50:31;;;;;;;2.35;1.20;;;;;;;16.96;85.80;101479.88;5020247;28;20087;-37
2022/06/09 09:53:01;;;;;;;3.22;1.48;;;;;;;17.05;84.83;101482.97;5076504;28;20476;-37
2022/06/09 09:55:32;;;;;;;4.90;1.35;;;;;;;17.22;85.53;101483.66;5076459;28;20032;-37
2022/06/09 09:58:13;;;;;;;4.10;1.45;;;;;;;17.38;87.34;101487.38;5075876;28;20029;-36
2022/06/09 10:00:38;;;;;;;2.63;1.23;;;;;;;17.47;83.35;101483.91;5075627;28;20024;-37
2022/06/09 10:08:44;;;;;;;2.83;1.17;;;;;;;17.82;84.75;101489.91;5075883;28;20404;-36
2022/06/09 10:14:45;;;;;;;3.53;1.67;;;;;;;18.06;82.61;101496.63;5076174;28;20487;-36
2022/06/09 10:17:26;;;;;;;4.85;1.35;;;;;;;18.23;83.18;101491.78;5073848;28;20040;-36
2022/06/09 10:20:25;;;;;;;3.08;1.20;;;;;;;18.48;82.30;101498.44;5075594;28;20032;-36
2022/06/09 10:22:55;;;;;;;4.07;1.63;;;;;;;18.66;79.04;101491.69;5074839;28;20029;-36
2022/06/09 10:25:49;;;;;;;5.25;1.20;;;;;;;18.85;78.46;101487.38;5076066;28;20099;-37
2022/06/09 10:28:25;;;;;;;4.15;1.60;;;;;;;19.02;77.39;101496.16;5075451;28;20032;-36
2022/06/09 10:31:07;;;;;;;3.88;1.30;;;;;;;19.19;75.07;101495.94;5075488;28;20504;-36
2022/06/09 10:33:54;;;;;;;3.38;1.48;;;;;;;19.56;77.17;101500.31;5074997;28;20021;-37
2022/06/09 10:36:22;;;;;;;;;;;;;;;19.87;79.17;101501.16;5076509;28;20036;-37
2022/06/09 10:39:01;;;;;;;3.22;1.35;;;;;;;19.87;74.94;101495.66;5075499;28;19916;-35
2022/06/09 10:42:03;;;;;;;4.25;1.52;;;;;;;20.07;75.94;101505.75;5075388;28;20090;-36
2022/06/09 10:44:55;;;;;;;4.50;1.40;;;;;;;19.84;73.42;101501.69;5053074;28;20041;-36
2022/06/09 10:56:31;;;;;;;3.92;1.10;;;;;;;20.06;69.94;101515.09;5052670;28;20072;-36
2022/06/09 10:59:05;;;;;;;3.03;1.10;;;;;;;19.80;67.76;101515.13;5052628;28;20116;-36
2022/06/09 11:01:33;;;;;;;3.63;1.17;;;;;;;19.50;70.39;101513.19;5035420;28;20049;-36
2022/06/09 11:04:00;;;;;;;5.35;1.30;;;;;;;19.34;71.89;101522.53;5052667;28;20025;-36
2022/06/09 11:06:35;;;;;;;3.85;1.30;;;;;;;19.23;71.53;101518.16;5052443;28;20048;-36
2022/06/09 11:09:21;;;;;;;4.53;1.50;;;;;;;19.38;71.15;101518.16;5052358;28;20600;-36
2022/06/09 11:12:25;;;;;;;3.25;1.27;;;;;;;19.52;73.13;101516.50;5052333;28;20025;-36
2022/06/09 11:14:59;;;;;;;3.33;1.35;;;;;;;19.37;70.91;101519.22;5052252;28;20072;-36
2022/06/09 11:17:38;;;;;;;6.07;1.25;;;;;;;19.37;71.46;101540.34;5052792;28;20036;-36
2022/06/09 11:20:22;;;;;;;4.32;1.30;;;;;;;19.37;69.82;101537.59;5063992;28;20477;-36
2022/06/09 11:23:02;;;;;;;2.75;1.10;;;;;;;19.53;69.65;101544.75;5074754;28;20032;-36
2022/06/09 11:25:37;;;;;;;4.38;1.17;;;;;;;19.65;67.61;101542.59;5074404;28;20119;-36
2022/06/09 11:28:30;;;;;;;6.20;1.27;;;;;;;19.74;68.87;101546.44;5074618;28;20028;-36
2022/06/09 11:31:17;;;;;;;5.22;1.58;;;;;;;19.50;67.03;101550.78;5074779;28;20028;-36
2022/06/09 11:34:01;;;;;;;6.00;1.30;;;;;;;19.73;69.08;101536.56;5074534;28;20036;-36
2022/06/09 11:36:36;;;;;;;5.47;1.70;;;;;;;20.12;68.68;101535.94;5074688;28;20392;-36
2022/06/09 11:39:23;;;;;;;4.28;1.20;;;;;;;20.17;61.96;101549.66;5074156;28;20450;-37
2022/06/09 11:42:32;;;;;;;3.33;1.30;;;;;;;20.43;64.80;101544.91;5074522;28;20037;-36
2022/06/09 11:45:14;;;;;;;4.25;1.20;;;;;;;20.67;62.53;101547.88;5074679;28;20024;-36
2022/06/09 11:47:40;;;;;;;4.35;1.27;;;;;;;20.96;62.74;101555.44;5074409;28;20040;-37
2022/06/09 11:50:08;;;;;;;5.15;1.60;;;;;;;20.82;61.49;101552.47;5074118;28;20078;-36
2022/06/09 11:52:47;;;;;;;4.07;1.20;;;;;;;20.89;63.93;101549.44;5074463;28;20075;-36
2022/06/09 11:58:31;;;;;;;3.75;1.10;;;;;;;21.05;61.53;101562.78;5073827;28;20079;-37
2022/06/09 12:01:27;;;;;;;3.47;1.10;;;;;;;21.03;59.51;101561.41;5073328;28;20041;-36
2022/06/09 12:04:17;;;;;;;4.70;1.33;;;;;;;21.15;59.22;101552.84;5073606;28;20028;-36